Time;durP1;ratioP1;P1;durP2;ratioP2;P2;SDS_P1;SDS_P2;PMS_P1;PMS_P2;Temp;Humidity;BMP_temperature;BMP_pressure;BME280_temperature;BME280_humidity;BME280_pressure;Samples;Min_cycle;Max_cycle;Signal;HPM_P1;HPM_P2
2023/12/18 00:00:04;;;;;;;;;;;17.30;67.00;;;;;;7315867;19;9764;-71
2023/12/18 00:02:32;;;;;;;;;;;17.30;67.20;;;;;;7317119;19;9534;-71
2023/12/18 00:05:01;;;;;;;;;;;17.30;67.20;;;;;;7316935;19;9523;-71
2023/12/18 00:07:30;;;;;;;;;;;17.30;67.20;;;;;;7315935;19;10696;-71
2023/12/18 00:09:59;;;;;;;;;;;17.20;67.30;;;;;;7318311;19;9521;-71
2023/12/18 00:12:28;;;;;;;;;;;17.20;67.20;;;;;;7316944;19;9604;-71
2023/12/18 00:15:00;;;;;;;;;;;17.20;67.30;;;;;;7314127;19;9513;-71
2023/12/18 00:17:28;;;;;;;;;;;17.20;67.30;;;;;;7317984;19;9450;-71
2023/12/18 00:19:58;;;;;;;;;;;17.20;67.40;;;;;;7316074;19;9374;-71
2023/12/18 00:22:27;;;;;;;;;;;17.10;67.40;;;;;;7316607;19;9182;-71
2023/12/18 00:24:56;;;;;;;;;;;17.10;67.40;;;;;;7317841;19;9474;-71
2023/12/18 00:27:25;;;;;;;;;;;17.10;67.50;;;;;;7317172;19;9135;-71
2023/12/18 00:29:54;;;;;;;;;;;17.10;67.60;;;;;;7315547;19;9461;-71
2023/12/18 00:32:26;;;;;;;;;;;17.00;67.50;;;;;;7316059;19;9594;-70
2023/12/18 00:34:55;;;;;;;;;;;17.00;67.60;;;;;;7315124;19;10624;-71
2023/12/18 00:37:44;;;;;;;;;;;17.00;67.60;;;;;;7315807;19;9494;-71
2023/12/18 00:40:11;;;;;;;;;;;17.00;67.70;;;;;;7316820;19;9548;-70
2023/12/18 00:42:40;;;;;;;;;;;17.00;67.70;;;;;;7314938;19;9623;-71
2023/12/18 00:45:10;;;;;;;;;;;16.90;67.70;;;;;;7315116;19;9413;-71
2023/12/18 00:47:41;;;;;;;;;;;16.90;67.70;;;;;;7315756;19;9514;-71
2023/12/18 00:50:11;;;;;;;;;;;16.90;67.70;;;;;;7316499;19;9545;-71
2023/12/18 00:52:40;;;;;;;;;;;16.90;67.70;;;;;;7316090;19;9477;-71
2023/12/18 00:55:11;;;;;;;;;;;16.90;67.80;;;;;;7316540;19;9563;-71
2023/12/18 00:57:40;;;;;;;;;;;16.90;67.80;;;;;;7315125;19;9176;-71
2023/12/18 01:00:10;;;;;;;;;;;16.80;67.80;;;;;;7316278;19;9471;-71
2023/12/18 01:02:42;;;;;;;;;;;16.90;67.80;;;;;;7310964;19;9473;-71
2023/12/18 01:05:13;;;;;;;;;;;16.90;67.80;;;;;;7315028;19;9255;-71
2023/12/18 01:07:43;;;;;;;;;;;16.90;67.70;;;;;;7315682;19;9240;-71
2023/12/18 01:10:13;;;;;;;;;;;16.90;67.70;;;;;;7316078;19;9295;-71
2023/12/18 01:12:42;;;;;;;;;;;17.00;67.60;;;;;;7313601;19;9507;-71
2023/12/18 01:15:11;;;;;;;;;;;17.10;67.60;;;;;;7316724;19;11189;-71
2023/12/18 01:17:43;;;;;;;;;;;17.10;67.40;;;;;;7316892;19;9588;-71
2023/12/18 01:20:12;;;;;;;;;;;17.20;67.40;;;;;;7312904;19;9462;-71
2023/12/18 01:22:41;;;;;;;;;;;17.30;67.30;;;;;;7314983;19;9229;-71
2023/12/18 01:25:11;;;;;;;;;;;17.30;67.20;;;;;;7315174;19;9346;-71
2023/12/18 01:27:39;;;;;;;;;;;17.40;67.10;;;;;;7316686;19;9458;-71
2023/12/18 01:30:10;;;;;;;;;;;17.40;67.10;;;;;;7319671;19;9435;-71
2023/12/18 01:32:42;;;;;;;;;;;17.50;67.10;;;;;;7321577;19;10338;-71
2023/12/18 01:35:31;;;;;;;;;;;17.60;67.00;;;;;;7318751;19;9557;-70
2023/12/18 01:38:00;;;;;;;;;;;17.60;66.90;;;;;;7320939;19;9526;-71
2023/12/18 01:40:30;;;;;;;;;;;17.70;66.80;;;;;;7322180;19;9453;-71
2023/12/18 01:42:59;;;;;;;;;;;17.70;66.80;;;;;;7320973;19;9157;-71
2023/12/18 01:45:28;;;;;;;;;;;17.80;66.80;;;;;;7323525;19;9509;-71
2023/12/18 01:48:00;;;;;;;;;;;17.80;66.70;;;;;;7323165;19;9206;-70
2023/12/18 01:50:48;;;;;;;;;;;17.80;66.60;;;;;;7318972;19;9496;-71
2023/12/18 01:53:18;;;;;;;;;;;17.80;66.60;;;;;;7318903;19;11051;-71
2023/12/18 01:55:47;;;;;;;;;;;17.80;66.50;;;;;;7321284;19;9531;-70
2023/12/18 01:58:16;;;;;;;;;;;17.80;66.50;;;;;;7320754;19;9454;-70
2023/12/18 02:00:46;;;;;;;;;;;17.80;66.40;;;;;;7317332;19;9473;-72
2023/12/18 02:03:20;;;;;;;;;;;17.80;66.40;;;;;;7320481;19;9562;-71
2023/12/18 02:05:50;;;;;;;;;;;17.80;66.40;;;;;;7321171;19;9454;-71
2023/12/18 02:08:18;;;;;;;;;;;17.80;66.40;;;;;;7320522;19;9301;-71
2023/12/18 02:10:48;;;;;;;;;;;17.80;66.40;;;;;;7315868;19;9497;-71
2023/12/18 02:13:17;;;;;;;;;;;17.80;66.50;;;;;;7321570;19;10908;-71
2023/12/18 02:15:46;;;;;;;;;;;17.70;66.40;;;;;;7321328;19;9490;-71
2023/12/18 02:18:17;;;;;;;;;;;17.70;66.50;;;;;;7322193;19;9465;-71
2023/12/18 02:20:47;;;;;;;;;;;17.70;66.50;;;;;;7315869;19;9495;-71
2023/12/18 02:23:18;;;;;;;;;;;17.70;66.60;;;;;;7319845;19;9536;-72
2023/12/18 02:25:47;;;;;;;;;;;17.60;66.60;;;;;;7319294;19;9699;-72
2023/12/18 02:28:19;;;;;;;;;;;17.60;66.60;;;;;;7319715;19;9237;-71
2023/12/18 02:30:48;;;;;;;;;;;17.60;66.70;;;;;;7318802;19;9513;-72
2023/12/18 02:33:17;;;;;;;;;;;17.50;66.60;;;;;;7320855;19;9550;-71
2023/12/18 02:35:46;;;;;;;;;;;17.50;66.80;;;;;;7318753;19;9210;-71
2023/12/18 02:38:18;;;;;;;;;;;17.50;66.90;;;;;;7319851;19;10762;-71
2023/12/18 02:40:47;;;;;;;;;;;17.40;66.90;;;;;;7318158;19;9512;-71
2023/12/18 02:43:16;;;;;;;;;;;17.40;66.90;;;;;;7317025;19;9734;-71
2023/12/18 02:45:45;;;;;;;;;;;17.40;66.90;;;;;;7318505;19;9508;-71
2023/12/18 02:48:14;;;;;;;;;;;17.40;67.00;;;;;;7319064;19;9330;-71
2023/12/18 02:50:42;;;;;;;;;;;17.40;67.10;;;;;;7321101;19;9343;-71
2023/12/18 02:53:11;;;;;;;;;;;17.30;67.10;;;;;;7319865;19;9741;-71
2023/12/18 02:55:43;;;;;;;;;;;17.30;67.00;;;;;;7319655;19;9462;-71
2023/12/18 02:58:12;;;;;;;;;;;17.30;67.10;;;;;;7317812;19;9546;-71
2023/12/18 03:00:41;;;;;;;;;;;17.20;67.10;;;;;;7319602;19;9476;-71
2023/12/18 03:03:10;;;;;;;;;;;17.20;67.10;;;;;;7318543;19;9696;-72
2023/12/18 03:05:58;;;;;;;;;;;17.20;67.10;;;;;;7316294;19;10263;-71
2023/12/18 03:08:27;;;;;;;;;;;17.20;67.30;;;;;;7319321;19;9364;-71
2023/12/18 03:10:59;;;;;;;;;;;17.10;67.20;;;;;;7319140;19;9224;-71
2023/12/18 03:13:28;;;;;;;;;;;17.10;67.30;;;;;;7318925;19;9444;-71
2023/12/18 03:15:59;;;;;;;;;;;17.10;67.30;;;;;;7320075;19;9442;-71
2023/12/18 03:18:28;;;;;;;;;;;17.10;67.40;;;;;;7317999;19;9674;-71
2023/12/18 03:20:57;;;;;;;;;;;17.10;67.40;;;;;;7318393;19;9602;-71
2023/12/18 03:23:26;;;;;;;;;;;17.00;68.00;;;;;;7319228;19;9927;-71
2023/12/18 03:25:55;;;;;;;;;;;17.00;68.00;;;;;;7318712;19;9415;-71
2023/12/18 03:28:26;;;;;;;;;;;17.00;67.50;;;;;;7320584;19;9253;-71
2023/12/18 03:30:55;;;;;;;;;;;17.00;67.60;;;;;;7318347;19;9583;-71
2023/12/18 03:33:25;;;;;;;;;;;17.00;67.60;;;;;;7317962;19;9537;-71
2023/12/18 03:35:54;;;;;;;;;;;16.90;67.60;;;;;;7318305;19;9470;-72
2023/12/18 03:38:24;;;;;;;;;;;17.00;67.60;;;;;;7318073;19;9577;-70
2023/12/18 03:40:53;;;;;;;;;;;16.90;67.60;;;;;;7319247;19;9632;-71
2023/12/18 03:43:22;;;;;;;;;;;16.90;67.60;;;;;;7317168;19;9190;-71
2023/12/18 03:45:54;;;;;;;;;;;16.90;67.60;;;;;;7315880;19;9635;-71
2023/12/18 03:48:23;;;;;;;;;;;16.90;67.70;;;;;;7317921;19;9255;-72
2023/12/18 03:50:52;;;;;;;;;;;16.90;67.70;;;;;;7317693;19;9405;-72
2023/12/18 03:53:21;;;;;;;;;;;16.90;67.70;;;;;;7317663;19;9610;-71
2023/12/18 03:55:51;;;;;;;;;;;16.90;67.60;;;;;;7316482;19;10798;-71
2023/12/18 03:58:20;;;;;;;;;;;17.00;67.70;;;;;;7317014;19;10532;-71
2023/12/18 04:00:48;;;;;;;;;;;17.00;67.50;;;;;;7316516;19;9161;-71
2023/12/18 04:03:20;;;;;;;;;;;17.10;67.50;;;;;;7318449;19;9431;-71
2023/12/18 04:05:49;;;;;;;;;;;17.10;67.40;;;;;;7318285;19;9433;-71
2023/12/18 04:08:18;;;;;;;;;;;17.20;67.30;;;;;;7313256;19;9602;-71
2023/12/18 04:10:47;;;;;;;;;;;17.20;67.20;;;;;;7317909;19;10470;-71
2023/12/18 04:13:16;;;;;;;;;;;17.30;67.10;;;;;;7316908;19;9558;-70
2023/12/18 04:15:44;;;;;;;;;;;17.40;67.10;;;;;;7317459;19;9632;-71
2023/12/18 04:18:13;;;;;;;;;;;17.40;67.10;;;;;;7314904;19;10883;-71
2023/12/18 04:20:45;;;;;;;;;;;17.50;67.00;;;;;;7316694;19;9212;-71
2023/12/18 04:23:34;;;;;;;;;;;17.60;66.90;;;;;;7315505;19;9246;-71
2023/12/18 04:26:03;;;;;;;;;;;17.60;66.80;;;;;;7316994;19;9939;-71
2023/12/18 04:28:32;;;;;;;;;;;17.70;66.70;;;;;;7312388;19;9533;-71
2023/12/18 04:31:01;;;;;;;;;;;17.70;66.60;;;;;;7316557;19;9214;-71
2023/12/18 04:33:30;;;;;;;;;;;17.80;66.60;;;;;;7315996;19;10667;-70
2023/12/18 04:36:02;;;;;;;;;;;17.80;66.50;;;;;;7311955;19;9504;-71
2023/12/18 04:38:31;;;;;;;;;;;17.80;66.50;;;;;;7316599;19;9506;-71
2023/12/18 04:41:01;;;;;;;;;;;17.80;66.50;;;;;;7315548;19;9286;-71
2023/12/18 04:43:31;;;;;;;;;;;17.80;66.40;;;;;;7315517;19;10725;-71
2023/12/18 04:46:02;;;;;;;;;;;17.80;66.40;;;;;;7317577;19;9449;-71
2023/12/18 04:48:31;;;;;;;;;;;17.80;66.30;;;;;;7314604;19;9513;-70
2023/12/18 04:51:02;;;;;;;;;;;17.80;66.30;;;;;;7314469;19;9404;-71
2023/12/18 04:53:32;;;;;;;;;;;17.80;66.30;;;;;;7316708;19;9516;-71
2023/12/18 04:56:01;;;;;;;;;;;17.80;66.30;;;;;;7317606;19;9327;-70
2023/12/18 04:58:30;;;;;;;;;;;17.80;66.30;;;;;;7316151;19;9700;-71
2023/12/18 05:00:59;;;;;;;;;;;17.80;66.30;;;;;;7314926;19;9476;-71
2023/12/18 05:03:28;;;;;;;;;;;17.80;66.30;;;;;;7317476;19;9379;-71
2023/12/18 05:05:57;;;;;;;;;;;17.70;66.30;;;;;;7321098;19;9413;-71
2023/12/18 05:08:29;;;;;;;;;;;17.70;66.30;;;;;;7323206;19;9555;-70
2023/12/18 05:10:58;;;;;;;;;;;17.70;66.40;;;;;;7323148;19;9463;-70
2023/12/18 05:13:27;;;;;;;;;;;17.60;66.40;;;;;;7321364;19;9450;-70
2023/12/18 05:15:56;;;;;;;;;;;17.60;66.50;;;;;;7321227;19;10008;-71
2023/12/18 05:18:45;;;;;;;;;;;17.60;66.60;;;;;;7319665;19;9564;-70
2023/12/18 05:21:14;;;;;;;;;;;17.50;66.60;;;;;;7322636;19;9508;-70
2023/12/18 05:23:47;;;;;;;;;;;17.50;66.60;;;;;;7321422;19;9481;-70
2023/12/18 05:26:16;;;;;;;;;;;17.50;66.80;;;;;;7321715;19;9491;-70
2023/12/18 05:28:45;;;;;;;;;;;17.40;66.70;;;;;;7322114;19;9230;-71
2023/12/18 05:31:15;;;;;;;;;;;17.40;66.80;;;;;;7319483;19;9785;-70
2023/12/18 05:33:45;;;;;;;;;;;17.40;66.90;;;;;;7320227;19;10534;-70
2023/12/18 05:36:14;;;;;;;;;;;17.40;66.90;;;;;;7322544;19;9253;-71
2023/12/18 05:38:45;;;;;;;;;;;17.30;66.90;;;;;;7319854;19;9519;-71
2023/12/18 05:41:14;;;;;;;;;;;17.30;67.00;;;;;;7321731;19;9627;-71
2023/12/18 05:43:43;;;;;;;;;;;17.30;67.00;;;;;;7322451;19;9777;-71
2023/12/18 05:46:13;;;;;;;;;;;17.30;67.10;;;;;;7323597;19;10672;-71
2023/12/18 05:48:42;;;;;;;;;;;17.20;67.00;;;;;;7318350;19;9296;-71
2023/12/18 05:51:21;;;;;;;;;;;17.20;67.00;;;;;;7316200;19;9482;-71
2023/12/18 05:53:52;;;;;;;;;;;17.20;67.00;;;;;;7318407;19;9483;-72
2023/12/18 05:56:21;;;;;;;;;;;17.20;67.00;;;;;;7317590;19;13067;-71
2023/12/18 05:58:51;;;;;;;;;;;17.10;67.10;;;;;;7314165;19;9281;-71
2023/12/18 06:01:21;;;;;;;;;;;17.10;67.10;;;;;;7315629;19;9591;-71
2023/12/18 06:03:52;;;;;;;;;;;17.10;67.20;;;;;;7315887;19;10780;-71
2023/12/18 06:06:21;;;;;;;;;;;17.10;67.30;;;;;;7316782;19;9510;-71
2023/12/18 06:08:52;;;;;;;;;;;17.10;67.20;;;;;;7319995;19;9680;-72
2023/12/18 06:11:21;;;;;;;;;;;17.10;67.30;;;;;;7319102;19;10765;-71
2023/12/18 06:13:50;;;;;;;;;;;17.00;67.30;;;;;;7319649;19;9504;-71
2023/12/18 06:16:19;;;;;;;;;;;17.00;67.30;;;;;;7316680;19;10803;-72
2023/12/18 06:18:48;;;;;;;;;;;17.00;67.40;;;;;;7321681;19;9529;-71
2023/12/18 06:21:17;;;;;;;;;;;17.00;67.40;;;;;;7320566;19;9747;-71
2023/12/18 06:23:46;;;;;;;;;;;17.00;67.40;;;;;;7319721;19;9512;-71
2023/12/18 06:26:17;;;;;;;;;;;17.00;67.40;;;;;;7317520;19;9455;-71
2023/12/18 06:28:46;;;;;;;;;;;16.90;67.40;;;;;;7318465;19;9457;-71
2023/12/18 06:31:15;;;;;;;;;;;16.90;67.50;;;;;;7321342;19;9259;-71
2023/12/18 06:33:45;;;;;;;;;;;16.90;68.10;;;;;;7320146;19;10366;-71
2023/12/18 06:36:19;;;;;;;;;;;16.90;67.50;;;;;;7318305;19;9471;-71
2023/12/18 06:38:48;;;;;;;;;;;16.90;67.50;;;;;;7318402;19;9564;-71
2023/12/18 06:41:19;;;;;;;;;;;16.90;67.50;;;;;;7321070;19;9188;-71
2023/12/18 06:43:49;;;;;;;;;;;17.00;67.60;;;;;;7320259;19;9415;-71
2023/12/18 06:46:18;;;;;;;;;;;17.00;67.60;;;;;;7321371;19;9468;-69
2023/12/18 06:48:47;;;;;;;;;;;17.00;67.40;;;;;;7313736;19;10537;-70
2023/12/18 06:51:16;;;;;;;;;;;17.10;67.60;;;;;;7321231;19;9257;-70
2023/12/18 06:53:45;;;;;;;;;;;17.20;67.40;;;;;;7321725;19;9450;-70
2023/12/18 06:56:15;;;;;;;;;;;17.20;67.30;;;;;;7317050;19;9589;-69
2023/12/18 06:58:47;;;;;;;;;;;17.20;67.20;;;;;;7316918;19;10676;-71
2023/12/18 07:01:18;;;;;;;;;;;17.30;67.10;;;;;;7317114;19;9461;-72
2023/12/18 07:03:46;;;;;;;;;;;17.40;67.10;;;;;;7309598;19;10259;-71
2023/12/18 07:06:15;;;;;;;;;;;17.50;67.20;;;;;;7319150;19;9506;-71
2023/12/18 07:08:44;;;;;;;;;;;17.50;67.20;;;;;;7319888;19;9518;-71
2023/12/18 07:11:13;;;;;;;;;;;17.60;67.20;;;;;;7319068;19;9273;-71
2023/12/18 07:13:42;;;;;;;;;;;17.70;67.10;;;;;;7320513;19;9326;-72
2023/12/18 07:16:21;;;;;;;;;;;17.70;66.90;;;;;;7318782;19;9633;-72
2023/12/18 07:18:50;;;;;;;;;;;17.80;66.80;;;;;;7317494;19;9430;-72
2023/12/18 07:21:19;;;;;;;;;;;17.90;66.70;;;;;;7317696;19;9485;-72
2023/12/18 07:23:48;;;;;;;;;;;18.00;66.70;;;;;;7312660;19;9472;-72
2023/12/18 07:26:17;;;;;;;;;;;18.00;66.60;;;;;;7313477;19;9465;-72
2023/12/18 07:28:46;;;;;;;;;;;18.10;66.50;;;;;;7315721;19;9272;-71
2023/12/18 07:31:18;;;;;;;;;;;18.20;66.50;;;;;;7302407;19;9439;-71
2023/12/18 07:33:48;;;;;;;;;;;18.20;66.40;;;;;;7315498;19;9564;-71
2023/12/18 07:36:22;;;;;;;;;;;18.30;66.30;;;;;;7318442;19;9451;-71
2023/12/18 07:38:51;;;;;;;;;;;18.30;66.20;;;;;;7318550;19;10143;-71
2023/12/18 07:41:20;;;;;;;;;;;18.40;66.20;;;;;;7319347;19;9348;-71
2023/12/18 07:43:49;;;;;;;;;;;18.40;66.00;;;;;;7317672;19;9533;-71
2023/12/18 07:46:24;;;;;;;;;;;18.50;66.00;;;;;;7319146;19;9180;-70
2023/12/18 07:48:53;;;;;;;;;;;18.50;66.10;;;;;;7318483;19;9653;-71
2023/12/18 07:51:22;;;;;;;;;;;18.60;66.00;;;;;;7312803;19;9665;-71
2023/12/18 07:53:51;;;;;;;;;;;18.60;65.90;;;;;;7317836;19;9527;-71
2023/12/18 07:56:20;;;;;;;;;;;18.60;65.90;;;;;;7317139;19;10964;-71
2023/12/18 07:58:49;;;;;;;;;;;18.70;65.90;;;;;;7318562;19;9265;-70
2023/12/18 08:01:18;;;;;;;;;;;18.70;66.00;;;;;;7317772;19;9230;-71
2023/12/18 08:03:50;;;;;;;;;;;18.70;65.90;;;;;;7318677;19;9505;-70
2023/12/18 08:06:19;;;;;;;;;;;18.80;65.90;;;;;;7316884;19;9600;-71
2023/12/18 08:08:48;;;;;;;;;;;18.80;65.90;;;;;;7317192;19;10165;-71
2023/12/18 08:11:17;;;;;;;;;;;18.80;65.80;;;;;;7317974;19;11103;-71
2023/12/18 08:13:48;;;;;;;;;;;18.90;65.80;;;;;;7317528;19;9503;-71
2023/12/18 08:16:18;;;;;;;;;;;18.90;65.80;;;;;;7317260;19;9424;-72
2023/12/18 08:18:50;;;;;;;;;;;18.90;65.80;;;;;;7318278;19;9735;-71
2023/12/18 08:21:20;;;;;;;;;;;18.90;65.80;;;;;;7316088;19;9625;-71
2023/12/18 08:23:49;;;;;;;;;;;19.00;65.80;;;;;;7316933;19;9524;-71
2023/12/18 08:26:18;;;;;;;;;;;18.90;65.70;;;;;;7316339;19;10707;-71
2023/12/18 08:28:48;;;;;;;;;;;19.00;65.80;;;;;;7314813;19;9591;-71
2023/12/18 08:31:17;;;;;;;;;;;19.00;65.70;;;;;;7318893;19;9419;-71
2023/12/18 08:33:45;;;;;;;;;;;19.00;65.70;;;;;;7317345;19;9230;-71
2023/12/18 08:36:18;;;;;;;;;;;19.10;65.70;;;;;;7318853;19;9182;-71
2023/12/18 08:38:47;;;;;;;;;;;19.10;65.70;;;;;;7316955;19;10724;-71
2023/12/18 08:41:16;;;;;;;;;;;19.10;65.70;;;;;;7317871;19;11178;-70
2023/12/18 08:43:45;;;;;;;;;;;19.10;65.70;;;;;;7317968;19;9245;-71
2023/12/18 08:46:14;;;;;;;;;;;19.20;65.70;;;;;;7314859;19;9442;-71
2023/12/18 08:48:43;;;;;;;;;;;19.20;65.70;;;;;;7317834;19;9470;-71
2023/12/18 08:51:12;;;;;;;;;;;19.20;65.70;;;;;;7317781;19;9455;-71
2023/12/18 08:53:44;;;;;;;;;;;19.20;65.60;;;;;;7316634;19;9498;-71
2023/12/18 08:56:12;;;;;;;;;;;19.30;65.70;;;;;;7315586;19;9548;-70
2023/12/18 08:58:41;;;;;;;;;;;19.30;65.70;;;;;;7313607;19;11686;-70
2023/12/18 09:01:10;;;;;;;;;;;19.30;65.70;;;;;;7316404;19;9486;-71
2023/12/18 09:03:39;;;;;;;;;;;19.30;65.60;;;;;;7316628;19;9568;-70
2023/12/18 09:06:08;;;;;;;;;;;19.30;66.20;;;;;;7314808;19;9587;-70
2023/12/18 09:08:39;;;;;;;;;;;19.30;65.70;;;;;;7315572;19;10942;-70
2023/12/18 09:11:11;;;;;;;;;;;19.40;65.60;;;;;;7316133;19;9502;-71
2023/12/18 09:13:41;;;;;;;;;;;19.40;65.70;;;;;;7313815;19;9382;-70
2023/12/18 09:16:10;;;;;;;;;;;19.40;65.60;;;;;;7313409;19;9455;-71
2023/12/18 09:18:39;;;;;;;;;;;19.40;65.60;;;;;;7315466;19;9616;-71
2023/12/18 09:21:07;;;;;;;;;;;19.40;65.60;;;;;;7316059;19;10455;-71
2023/12/18 09:23:36;;;;;;;;;;;19.50;65.60;;;;;;7315939;19;9509;-70
2023/12/18 09:26:05;;;;;;;;;;;19.50;65.60;;;;;;7315008;19;9387;-71
2023/12/18 09:28:38;;;;;;;;;;;19.50;65.60;;;;;;7313586;19;10379;-71
2023/12/18 09:31:07;;;;;;;;;;;19.50;65.50;;;;;;7309678;19;10843;-71
2023/12/18 09:33:37;;;;;;;;;;;19.50;65.50;;;;;;7314264;19;9505;-70
2023/12/18 09:36:10;;;;;;;;;;;19.50;65.50;;;;;;7311625;19;9460;-71
2023/12/18 09:38:40;;;;;;;;;;;19.50;65.50;;;;;;7310733;19;9579;-71
2023/12/18 09:41:10;;;;;;;;;;;19.60;65.60;;;;;;7312837;19;9269;-71
2023/12/18 09:43:41;;;;;;;;;;;19.60;65.50;;;;;;7312809;19;9476;-70
2023/12/18 09:46:10;;;;;;;;;;;19.60;65.50;;;;;;7314947;19;9294;-71
2023/12/18 09:48:39;;;;;;;;;;;19.60;65.50;;;;;;7314001;19;9457;-71
2023/12/18 09:51:15;;;;;;;;;;;19.60;65.50;;;;;;7317311;19;9632;-70
2023/12/18 09:53:44;;;;;;;;;;;19.60;65.50;;;;;;7320798;19;9422;-71
2023/12/18 09:56:33;;;;;;;;;;;19.70;65.50;;;;;;7321155;19;9371;-71
2023/12/18 09:59:06;;;;;;;;;;;19.70;65.50;;;;;;7322892;19;9276;-71
2023/12/18 10:01:38;;;;;;;;;;;19.60;65.60;;;;;;7322209;19;9309;-71
2023/12/18 10:04:07;;;;;;;;;;;19.60;65.50;;;;;;7322580;19;11081;-71
2023/12/18 10:06:36;;;;;;;;;;;19.60;65.50;;;;;;7320061;19;10558;-71
2023/12/18 10:09:09;;;;;;;;;;;19.60;65.50;;;;;;7322340;19;9572;-71
2023/12/18 10:11:38;;;;;;;;;;;19.50;65.50;;;;;;7320825;19;9550;-71
2023/12/18 10:14:10;;;;;;;;;;;19.50;65.60;;;;;;7320083;19;9394;-71
2023/12/18 10:16:41;;;;;;;;;;;19.50;65.60;;;;;;7321214;19;9401;-70
2023/12/18 10:19:12;;;;;;;;;;;19.40;65.60;;;;;;7321772;19;9391;-71
2023/12/18 10:21:41;;;;;;;;;;;19.40;65.60;;;;;;7319877;19;9408;-70
2023/12/18 10:24:11;;;;;;;;;;;19.40;65.70;;;;;;7320905;19;9457;-71
2023/12/18 10:26:40;;;;;;;;;;;19.30;65.50;;;;;;7321327;19;9253;-71
2023/12/18 10:29:12;;;;;;;;;;;19.30;65.60;;;;;;7319429;19;9605;-71
2023/12/18 10:32:01;;;;;;;;;;;19.30;65.50;;;;;;7320615;19;9222;-70
2023/12/18 10:34:36;;;;;;;;;;;19.30;65.60;;;;;;7322969;19;9418;-70
2023/12/18 10:37:05;;;;;;;;;;;19.20;65.60;;;;;;7320383;19;9394;-71
2023/12/18 10:39:43;;;;;;;;;;;19.20;65.70;;;;;;7319864;19;9334;-71
2023/12/18 10:42:24;;;;;;;;;;;19.20;65.70;;;;;;7321162;19;9187;-71
2023/12/18 10:44:58;;;;;;;;;;;19.20;65.70;;;;;;7320608;19;9521;-71
2023/12/18 10:47:28;;;;;;;;;;;19.20;65.70;;;;;;7321481;19;9415;-71
2023/12/18 10:50:02;;;;;;;;;;;19.20;65.70;;;;;;7320871;19;9523;-70
2023/12/18 10:52:32;;;;;;;;;;;19.20;65.80;;;;;;7321140;19;9528;-70
2023/12/18 10:55:03;;;;;;;;;;;19.20;65.80;;;;;;7315953;19;9403;-70
2023/12/18 10:57:36;;;;;;;;;;;19.20;65.80;;;;;;7312421;19;9548;-70
2023/12/18 11:00:14;;;;;;;;;;;19.30;65.90;;;;;;7317998;19;9494;-71
2023/12/18 11:02:45;;;;;;;;;;;19.30;65.90;;;;;;7315593;19;9509;-70
2023/12/18 11:05:15;;;;;;;;;;;19.40;65.90;;;;;;7320283;19;9531;-70
2023/12/18 11:07:45;;;;;;;;;;;19.40;65.90;;;;;;7320143;19;9371;-71
2023/12/18 11:10:15;;;;;;;;;;;19.40;65.90;;;;;;7320007;19;9281;-70
2023/12/18 11:12:46;;;;;;;;;;;19.40;65.90;;;;;;7319585;19;9221;-70
2023/12/18 11:15:32;;;;;;;;;;;19.50;65.80;;;;;;7319547;19;9407;-71
2023/12/18 11:18:16;;;;;;;;;;;19.60;65.90;;;;;;7319452;19;9660;-70
2023/12/18 11:21:05;;;;;;;;;;;19.60;65.80;;;;;;7316705;19;9462;-71
2023/12/18 11:23:41;;;;;;;;;;;19.60;65.70;;;;;;7317500;19;9430;-71
2023/12/18 11:26:13;;;;;;;;;;;19.70;65.80;;;;;;7317591;19;9330;-70
2023/12/18 11:28:48;;;;;;;;;;;19.70;65.70;;;;;;7319700;19;9511;-71
2023/12/18 11:31:22;;;;;;;;;;;19.70;65.70;;;;;;7318616;19;9509;-70
2023/12/18 11:34:04;;;;;;;;;;;19.70;65.70;;;;;;7316689;19;9136;-71
2023/12/18 11:36:33;;;;;;;;;;;19.70;65.70;;;;;;7315812;19;9645;-70
2023/12/18 11:39:05;;;;;;;;;;;19.70;65.70;;;;;;7318709;19;9410;-70
2023/12/18 11:41:44;;;;;;;;;;;19.70;65.80;;;;;;7316618;19;9533;-70
2023/12/18 11:44:33;;;;;;;;;;;19.60;65.80;;;;;;7314916;19;9541;-70
2023/12/18 11:47:09;;;;;;;;;;;19.60;65.80;;;;;;7316561;19;9391;-71
2023/12/18 11:49:38;;;;;;;;;;;19.60;65.80;;;;;;7315489;19;10648;-70
2023/12/18 11:52:25;;;;;;;;;;;19.60;65.80;;;;;;7314482;19;9568;-71
2023/12/18 11:54:55;;;;;;;;;;;19.50;65.80;;;;;;7319855;19;9465;-70
2023/12/18 11:57:24;;;;;;;;;;;19.50;65.80;;;;;;7316906;19;9312;-73
2023/12/18 11:59:53;;;;;;;;;;;19.40;65.80;;;;;;7318794;19;9524;-77
2023/12/18 12:02:29;;;;;;;;;;;19.40;65.80;;;;;;7316838;19;9457;-71
2023/12/18 12:05:00;;;;;;;;;;;19.40;65.80;;;;;;7317766;19;9250;-70
2023/12/18 12:07:29;;;;;;;;;;;19.40;66.00;;;;;;7318824;19;9609;-71
2023/12/18 12:10:01;;;;;;;;;;;19.30;66.00;;;;;;7318121;19;9219;-74
2023/12/18 12:12:30;;;;;;;;;;;19.30;66.00;;;;;;7318259;19;9453;-70
2023/12/18 12:15:02;;;;;;;;;;;19.30;66.10;;;;;;7315932;19;9235;-69
2023/12/18 12:17:33;;;;;;;;;;;19.30;66.20;;;;;;7316904;19;9425;-70
2023/12/18 12:20:02;;;;;;;;;;;19.20;66.20;;;;;;7319710;19;9637;-70
2023/12/18 12:22:31;;;;;;;;;;;19.30;66.30;;;;;;7318103;19;9268;-70
2023/12/18 12:25:00;;;;;;;;;;;19.30;66.20;;;;;;7317574;19;9394;-70
2023/12/18 12:27:29;;;;;;;;;;;19.30;66.20;;;;;;7300039;19;9511;-70
2023/12/18 12:29:58;;;;;;;;;;;19.30;66.20;;;;;;7306606;19;9433;-70
2023/12/18 12:32:29;;;;;;;;;;;19.30;66.20;;;;;;7309265;19;9151;-70
2023/12/18 12:35:02;;;;;;;;;;;19.30;66.10;;;;;;7313253;19;9242;-70
2023/12/18 12:37:33;;;;;;;;;;;19.40;66.10;;;;;;7315939;19;9526;-70
2023/12/18 12:40:03;;;;;;;;;;;19.40;66.20;;;;;;7314707;19;9162;-70
2023/12/18 12:42:33;;;;;;;;;;;19.40;66.20;;;;;;7316196;19;9453;-70
2023/12/18 12:45:02;;;;;;;;;;;19.40;66.10;;;;;;7315425;19;9463;-70
2023/12/18 12:47:32;;;;;;;;;;;19.50;66.10;;;;;;7315676;19;9715;-70
2023/12/18 12:50:08;;;;;;;;;;;19.50;66.10;;;;;;7314039;19;9458;-70
2023/12/18 12:52:42;;;;;;;;;;;19.50;66.10;;;;;;7315491;19;9480;-69
2023/12/18 12:55:12;;;;;;;;;;;19.60;66.00;;;;;;7317867;19;9650;-70
2023/12/18 12:57:41;;;;;;;;;;;19.50;65.90;;;;;;7312324;19;11002;-70
2023/12/18 13:00:11;;;;;;;;;;;19.60;65.90;;;;;;7314917;19;9286;-70
2023/12/18 13:02:40;;;;;;;;;;;19.70;65.90;;;;;;7315684;19;10663;-70
2023/12/18 13:05:11;;;;;;;;;;;19.70;65.90;;;;;;7309285;19;9507;-69
2023/12/18 13:07:41;;;;;;;;;;;19.70;65.80;;;;;;7299699;19;10584;-69
2023/12/18 13:10:12;;;;;;;;;;;19.70;65.80;;;;;;7313826;19;9481;-70
2023/12/18 13:13:01;;;;;;;;;;;19.60;65.70;;;;;;7309252;19;9531;-70
2023/12/18 13:15:30;;;;;;;;;;;19.60;65.70;;;;;;7314858;19;9469;-70
2023/12/18 13:17:59;;;;;;;;;;;19.60;65.70;;;;;;7313690;19;9643;-70
2023/12/18 13:20:30;;;;;;;;;;;19.60;65.60;;;;;;7314934;19;9610;-70
2023/12/18 13:22:59;;;;;;;;;;;19.60;65.60;;;;;;7312822;19;9308;-70
2023/12/18 13:25:28;;;;;;;;;;;19.60;65.60;;;;;;7315570;19;9222;-70
2023/12/18 13:27:57;;;;;;;;;;;19.50;65.60;;;;;;7322511;19;9614;-69
2023/12/18 13:30:26;;;;;;;;;;;19.50;65.50;;;;;;7319989;19;9237;-69
2023/12/18 13:32:55;;;;;;;;;;;19.50;65.50;;;;;;7320616;19;9245;-70
2023/12/18 13:35:24;;;;;;;;;;;19.50;65.50;;;;;;7317967;19;9260;-70
2023/12/18 13:37:56;;;;;;;;;;;19.40;65.50;;;;;;7321035;19;9574;-70
2023/12/18 13:40:25;;;;;;;;;;;19.40;65.60;;;;;;7319531;19;9482;-70
2023/12/18 13:43:15;;;;;;;;;;;19.40;65.60;;;;;;7320671;19;9513;-70
2023/12/18 13:45:43;;;;;;;;;;;19.30;65.60;;;;;;7319797;19;9489;-70
2023/12/18 13:48:12;;;;;;;;;;;19.20;65.70;;;;;;7320722;19;9702;-70
2023/12/18 13:50:42;;;;;;;;;;;19.20;65.60;;;;;;7320772;19;9634;-69
2023/12/18 13:53:14;;;;;;;;;;;19.20;65.70;;;;;;7320908;19;9743;-70
2023/12/18 13:55:43;;;;;;;;;;;19.30;65.80;;;;;;7321003;19;10841;-70
2023/12/18 13:58:11;;;;;;;;;;;19.30;65.90;;;;;;7319724;19;10839;-69
2023/12/18 14:00:42;;;;;;;;;;;19.20;65.80;;;;;;7319424;19;9477;-70
2023/12/18 14:03:11;;;;;;;;;;;19.30;65.90;;;;;;7318869;19;9132;-70
2023/12/18 14:05:40;;;;;;;;;;;19.30;65.80;;;;;;7319670;19;9392;-70
2023/12/18 14:08:09;;;;;;;;;;;19.30;65.80;;;;;;7313946;19;9587;-70
2023/12/18 14:10:40;;;;;;;;;;;19.40;65.80;;;;;;7321031;19;10306;-70
2023/12/18 14:13:09;;;;;;;;;;;19.40;65.80;;;;;;7319655;19;9549;-70
2023/12/18 14:15:38;;;;;;;;;;;19.40;65.80;;;;;;7321154;19;9503;-70
2023/12/18 14:18:07;;;;;;;;;;;19.40;65.70;;;;;;7320247;19;9345;-70
2023/12/18 14:20:36;;;;;;;;;;;19.50;66.40;;;;;;7315683;19;9303;-70
2023/12/18 14:23:06;;;;;;;;;;;19.50;65.80;;;;;;7318619;19;9171;-71
2023/12/18 14:25:35;;;;;;;;;;;19.60;65.80;;;;;;7317566;19;9468;-72
2023/12/18 14:28:07;;;;;;;;;;;19.60;65.70;;;;;;7319302;19;9479;-70
2023/12/18 14:30:36;;;;;;;;;;;19.70;65.70;;;;;;7316922;19;9623;-70
2023/12/18 14:33:05;;;;;;;;;;;19.60;65.60;;;;;;7320183;19;9573;-70
2023/12/18 14:35:34;;;;;;;;;;;19.70;65.60;;;;;;7317769;19;9625;-70
2023/12/18 14:38:23;;;;;;;;;;;19.70;65.60;;;;;;7314136;19;9265;-70
2023/12/18 14:40:52;;;;;;;;;;;19.70;65.50;;;;;;7318896;19;9254;-70
2023/12/18 14:43:24;;;;;;;;;;;19.70;65.40;;;;;;7319685;19;9190;-70
2023/12/18 14:45:53;;;;;;;;;;;19.70;65.50;;;;;;7318278;19;9253;-70
2023/12/18 14:48:22;;;;;;;;;;;19.60;65.40;;;;;;7320301;19;9739;-70